Stuttgart Echterdingen, Germany

08:11 AM CEST del 25 Agosto 2016 (GMT +0200)
Wiesenstraße | | Change Station

Alt. 1187 ft 48.68 °N, 9.23 °E | Updated 8 minutes ago

Clear
Sereno
60.1 °F
Sembra 60.1 °F
N
0.0
Vento Variabile Vento da Nord
Gusts 0.6 mph

Oggi
Massima -- | Minima -- °F
--% Possibilità di precip.
Ieri
Massima -- | Minima -- °F
Precip. -- in
Pressione 30.12 in
Visibilità -9999.0 miglia
Nuvole
Punto di rugiada 51 °F
Umidità 71%
Piovosità 0.00 in
Spessore del manto nevoso Non disponibile.
6:30 AM 8:18 PM
Gobba a levante, 49% visible
METAR EDDS 250550Z 26002KT CAVOK 17/14 Q1020 NOSIG
Pressione 30.12 in
Visibilità -9999.0 miglia
Nuvole
Punto di rugiada 51 °F
Umidità 71%
Piovosità 0.00 in
Spessore del manto nevoso Non disponibile.
6:30 AM 8:18 PM
Gobba a levante, 49% visible
METAR EDDS 250550Z 26002KT CAVOK 17/14 Q1020 NOSIG

10-Day Weather Forecast

×

Almanac

Astronomia

Aug. 25, 2016 Alba Tramonto
Ora attuale
Crepuscolo civile
Crepuscolo nautico
Crepuscolo astronomico
Luna
Estensione della luce visibile
Lunghezza del giorno
Tomorrow will be .
, % of the Moon is Illuminated

Gli estremi di oggi

Massime Regione Minime Regione

Community

WunderPhotos

Upload Photos

1,934,803 foto caricate!

WunderBlog® & News

Nearby

Qualità dell'aria

  Qualità dell'aria Indice AQ Inquinante
Not available.

Profondità neve

Stazione Profondità Altitudine

Attività sismica

Città  Distanza Mag. Data & Ora
Minimo Magnitudo Mostrato è 2.5.

Temperature delle acque costiere

Località Temperatura

Stations

Stazioni meteo nelle vicinanze

Ubicazione della stazione Temp. Raffreddamento del vento Punto di rugiada Umidità Vento Precip. Alt. Aggiornato Tipo